Historyczne dane pomiarowe

Dodano dane terminowe – wersja testowa.

Dane z okresu 1951-2018

Wersja bazy: 1.27 [2018-11-28, lista zmian], aktualizacja planowana na 2018-12-07

Dane meteo z obszaru Polski uzyskane na podstawie danych udostępnionych przez Instytut Meteorologii i Gospodarki Wodnej – Państwowy Instytut Badawczy.

 

Wybierz Datę:    

       

TemperaturaWilgotnośćWiatrCiśnienieOpadyŚniegCzas trwania zjawisk
 Stacja t tx tn tng RH VA  wxwx mslp ppp RRR   cm mm wxwxwxwxwxwxwx
2018-11-30 -4.4 0.4 -6.8 -8.6 70.6 3.1- 2.3--1026.4 988.5 0.0 0.0 0.0x- 6.8-------
2018-11-29 -5.0 -1.7 -7.6 -9.2 75.6 3.2- 3.0--1033.8 995.6 0.0 0.0 0.0x- 7.9-------
2018-11-28 -2.6 -1.1 -3.7 -7.5 86.5 4.4- 1.9--1031.0 993.2 0.0 0.0 0.0x- 0.7-------
2018-11-27 -2.1 0.3 -3.1 -3.5 79.9 4.2- 2.9--1020.1 982.8 0.0 0.0 0.0x- 3.8-------
2018-11-26 1.5 5.0 -1.0 -0.7 91.5 6.3- 3.5--1011.8 975.3 0.0 0.0 0.0x- 0.0-------
2018-11-25 5.3 7.4 4.2 2.5 89.0 7.9- 1.1--1013.9 977.8 0.0 0.0 0.0x- 0.1-------
2018-11-24 3.4 6.0 0.9 0.7 89.6 7.0- 1.4--1016.9 980.5 0.0 0.0 0.0x- 0.0-------
2018-11-23 1.3 5.5 -0.9 -0.8 87.3 5.9- 2.0--1026.0 988.9 0.0 0.0 0.0x- 3.9-------
2018-11-22 -0.8 -0.2 -1.2 -1.2 88.1 5.1- 2.6--1026.2 988.9 0.0 0.0 0.0x- 0.0-------
2018-11-21 -0.7 -0.3 -1.2 -1.4 88.5 5.1- 3.5--1022.7 985.5 0.5 0.5 0.0x- 0.0-------
2018-11-20 -0.7 -0.2 -0.9 -0.9 84.0 4.9- 4.4--1021.5 984.4 0.0 0.0 0.0x- 0.0-------
2018-11-19 -0.7 0.0 -2.3 -2.3 90.6 5.2- 2.8--1022.9 985.7 0.0 0.0 0.0x- 0.0-------
2018-11-18 -2.0 2.1 -5.4 -6.5 74.9 3.9- 1.8--1029.6 992.0 1.3 0.0 1.3x- 4.2-------
2018-11-17 -0.2 3.5 -3.1 -3.3 72.1 4.3- 2.5--1038.91001.2 0.0 0.0 0.0x- 8.3-------
2018-11-16 3.8 6.5 3.0 2.7 78.5 6.3- 2.8--1037.31000.2 0.0 0.0 0.0x- 0.9-------
2018-11-15 6.7 8.2 6.2 4.7 84.1 8.3- 1.9--1032.4 995.9 0.0 0.0 0.0x- 0.0-------
2018-11-14 7.5 10.9 6.5 5.2 89.0 9.2- 2.8--1029.4 993.0 0.2 0.2 0.0x- 0.1-------
2018-11-13 11.1 16.6 8.0 6.7 81.4 10.6- 3.0--1023.9 988.2 3.2 0.9 2.3x- 5.3-------
2018-11-12 10.0 16.5 5.1 3.8 79.4 9.6- 2.5--1023.2 987.4 0.0 0.0 0.0x- 5.1-------
2018-11-11 9.7 15.1 4.4 2.3 78.5 9.3- 2.5--1017.0 981.4 0.0 0.0 0.0x- 6.0-------
2018-11-10 8.6--- 85.8 9.4- 1.8--1016.1 980.3 0.0 0.0 0.0x- 7.5-------
2018-11-09 7.6 14.4 3.3 2.5 92.4 9.7- 1.4--1020.2 984.2 0.0 0.0 0.0x- 5.4-------
2018-11-08 9.5 14.9 5.5 2.0 82.3 9.8- 1.3--1021.2 985.4 0.0 0.0 0.0x- 5.9-------
2018-11-07 10.9 18.9 4.7 3.4 69.6 8.8- 2.1--1017.7 982.1 0.0 0.0 0.0x- 8.3-------
2018-11-06 12.0 20.1 6.5 4.2 66.4 8.9- 2.3--1018.6 983.2 0.0 0.0 0.0x- 8.9-------
2018-11-05 10.7 14.3 9.3 8.3 92.3 11.8- 2.1--1020.1 984.5 0.1 0.1 0.0x- 5.2-------
2018-11-04 9.7 10.7 8.4 8.5 97.1 11.7- 2.5--1024.2 988.3 0.0 0.0 0.0x- 0.0-------
2018-11-03 9.2 13.3 8.5 8.5 94.6 10.9- 2.6--1027.7 991.6 2.8 2.8 0.0x- 0.0-------
2018-11-02 14.4 18.5 11.8 6.1 66.1 10.8- 1.6--1022.2 986.9 6.5 0.0 6.5x- 7.1-------
2018-11-01 13.6 19.4 7.7 5.2 58.5 9.0- 2.5--1019.8 984.5 0.0 0.0 0.0x- 6.4-------
2018-10-31 12.4 17.2 7.6 2.5 61.5 8.8- 2.0--1021.1 985.6 0.0 0.0 0.0x- 9.0-------
2018-10-30 16.2 20.6 14.4 12.7 63.8 11.7- 3.5--1005.8 971.3 1.1 1.1 0.0x- 2.2-------
2018-10-29 9.2 14.9 4.0 4.1 94.0 11.1- 2.3--1008.4 972.9 0.0 0.0 0.0x- 2.2-------
2018-10-28 4.4 7.3 3.8 3.7 93.8 7.8- 2.9--1012.8 976.6 10.1 6.9 3.2x- 0.0-------
2018-10-27 8.1 9.8 7.2 5.0 83.8 9.1- 1.8--1006.9 971.4 5.0 1.2 3.8x- 0.1-------
2018-10-26 8.3 10.1 5.8 3.8 77.3 8.4- 1.8--1009.7 974.1 0.0 0.0 0.0x- 0.0-------
2018-10-25 6.7 10.4 2.1 1.0 86.4 8.6- 3.4--1009.7 973.9 3.4 3.4 0.0x- 0.0-------
2018-10-24 6.2 8.4 4.8 3.2 69.6 6.6- 7.8--1006.7 971.0 0.1 0.1 0.0x- 4.4-------
2018-10-23 6.1 9.8 3.8 3.1 88.1 8.3- 3.4--1014.8 978.8 21.1 10.6 10.5x- 0.2-------
2018-10-22 6.6 13.2 -0.5 -1.8 81.9 7.9- 2.0--1026.7 990.3 0.5 0.0 0.5x- 8.6-------
2018-10-21 7.4 10.8 5.5 2.4 85.4 8.8- 2.4--1028.6 992.2 0.1 0.1 0.0x- 1.3-------
2018-10-20 9.2--- 85.6 10.1- 2.6--1026.0 990.0 0.1 0.1 0.0x- 0.0-------
2018-10-19 8.5 13.8 5.6 3.4 95.3 10.6- 2.0--1023.8 987.7 0.0 0.0 0.0x- 0.0-------
2018-10-18 13.7 19.2 10.7 8.3 79.3 12.4- 1.0--1020.3 985.0 0.0 0.0 0.0x- 3.7-------
2018-10-17 14.6 21.1 9.5 5.9 60.5 9.8- 1.1--1021.9 986.7 0.1 0.0 0.1x- 3.0-------
2018-10-16 14.2 21.8 7.6 5.7 56.1 8.6- 1.8--1022.0 986.7 0.0 0.0 0.0x- 6.9-------
2018-10-15 14.6 22.6 8.3 5.4 60.0 9.3- 2.1--1022.5 987.2 0.0 0.0 0.0x- 10.1-------
2018-10-14 15.4 23.4 9.1 6.0 65.4 10.6- 1.6--1024.2 988.9 0.0 0.0 0.0x- 10.2-------
2018-10-13 15.2 22.9 9.0 5.4 67.5 11.1- 1.4--1028.5 993.1 0.0 0.0 0.0x- 10.1-------
2018-10-12 15.5 22.6 9.2 6.0 68.0 11.5- 1.6--1027.5 992.2 0.0 0.0 0.0x- 10.2-------
2018-10-11 14.7 23.2 8.4 4.8 69.4 11.4- 1.5--1025.3 990.0 0.0 0.0 0.0x- 8.1-------
2018-10-10 14.9 22.7 8.8 5.6 68.5 11.1- 1.5--1026.4 991.0 0.0 0.0 0.0x---------
2018-10-09 10.0 17.5 2.7 -0.4 83.8 10.2- 1.0--1025.8 989.8 0.0 0.0 0.0x- 5.2-------
2018-10-08 9.0 14.1 7.0 4.8 77.1 8.7- 1.4--1024.6 988.6 0.0 0.0 0.0x- 4.8-------
2018-10-07 15.5 22.2 11.8 9.2 70.3 12.2- 2.8--1014.3 979.4 0.0 0.0 0.0x- 8.6-------
2018-10-06 13.5 21.6 5.5 3.6 66.5 9.8- 2.5--1016.9 981.7 0.0 0.0 0.0x- 10.7-------
2018-10-05 10.6 17.5 4.1 2.5 71.6 8.9- 2.1--1026.6 990.7 0.0 0.0 0.0x- 10.8-------
2018-10-04 8.2 12.9 4.9 3.9 79.5 8.5- 2.4--1026.7 990.5 0.0 0.0 0.0x- 4.9-------
2018-10-03 8.2 11.6 6.2 5.5 79.1 8.5- 3.3--1015.9 980.1 1.5 1.4 0.1x- 3.8-------
2018-10-02 8.3 11.3 6.7 5.6 76.6 8.4- 1.9--1015.7 979.9 1.5 0.7 0.8x- 1.3-------
81.7 ms

 

Źródłem pochodzenia danych jest Instytut Meteorologii i Gospodarki Wodnej – Państwowy Instytut Badawczy. Dane Instytutu Meteorologii i Gospodarki Wodnej – Państwowego Instytutu Badawczego zostały przetworzone.

Dane źródłowe można odnaleźć na stronie https://dane.imgw.pl